Time;durP1;ratioP1;P1;durP2;ratioP2;P2;SDS_P1;SDS_P2;PMS_P1;PMS_P2;Temp;Humidity;BMP_temperature;BMP_pressure;BME280_temperature;BME280_humidity;BME280_pressure;Samples;Min_cycle;Max_cycle;Signal;HPM_P1;HPM_P2
2022/09/15 00:00:19;;;;;;;3.73;2.90;;;19.50;99.90;;;;;;1036742;28;20029;-74
2022/09/15 00:00:51;;;;;;;4.53;2.73;;;19.50;99.90;;;;;;1035541;28;20081;-75
2022/09/15 00:01:22;;;;;;;5.25;2.95;;;19.50;99.90;;;;;;1036329;28;20021;-74
2022/09/15 00:01:53;;;;;;;3.42;2.70;;;19.50;99.90;;;;;;1035724;28;20026;-77
2022/09/15 00:02:24;;;;;;;4.07;2.60;;;19.50;99.90;;;;;;1035690;28;20022;-74
2022/09/15 00:02:54;;;;;;;3.83;2.60;;;19.50;99.90;;;;;;1036276;28;20014;-76
2022/09/15 00:03:25;;;;;;;3.47;3.00;;;19.50;99.90;;;;;;1038535;28;20017;-75
2022/09/15 00:03:56;;;;;;;4.67;2.60;;;19.50;99.90;;;;;;1037082;28;20022;-76
2022/09/15 00:04:26;;;;;;;4.53;2.73;;;19.50;99.90;;;;;;1035438;28;20026;-75
2022/09/15 00:04:57;;;;;;;3.50;2.40;;;19.50;99.90;;;;;;1037562;28;20104;-74
2022/09/15 00:05:27;;;;;;;2.07;1.70;;;19.50;99.90;;;;;;1039945;28;20539;-74
2022/09/15 00:05:58;;;;;;;4.20;2.73;;;19.60;99.90;;;;;;1039400;28;20834;-75
2022/09/15 00:06:29;;;;;;;3.33;2.37;;;19.60;99.90;;;;;;1039481;28;20096;-73
2022/09/15 00:06:59;;;;;;;3.40;2.60;;;19.60;99.90;;;;;;1034992;28;20010;-73
2022/09/15 00:07:30;;;;;;;3.13;2.13;;;19.60;99.90;;;;;;1038882;28;20108;-74
2022/09/15 00:08:01;;;;;;;3.07;2.30;;;19.60;99.90;;;;;;1035499;28;20069;-74
2022/09/15 00:08:31;;;;;;;4.87;2.10;;;19.60;99.90;;;;;;1038380;28;20025;-73
2022/09/15 00:09:03;;;;;;;4.43;2.37;;;19.60;99.90;;;;;;1040024;28;20041;-75
2022/09/15 00:09:34;;;;;;;3.10;2.30;;;19.60;99.90;;;;;;1039310;28;20053;-74
2022/09/15 00:10:06;;;;;;;3.63;2.25;;;19.70;99.90;;;;;;1036905;28;20116;-74
2022/09/15 00:10:37;;;;;;;4.00;2.50;;;19.70;99.90;;;;;;1035412;28;20022;-74
2022/09/15 00:11:14;;;;;;;3.80;2.53;;;19.70;99.90;;;;;;1034914;28;20037;-74
2022/09/15 00:11:45;;;;;;;2.20;1.83;;;19.70;99.90;;;;;;1037804;28;20028;-74
2022/09/15 00:12:15;;;;;;;3.93;2.20;;;19.70;99.90;;;;;;1039346;28;20017;-75
2022/09/15 00:12:46;;;;;;;3.57;2.20;;;19.70;99.90;;;;;;1038179;28;20017;-76
2022/09/15 00:13:17;;;;;;;3.23;2.10;;;19.70;99.90;;;;;;1035655;28;20022;-75
2022/09/15 00:13:49;;;;;;;3.78;2.47;;;19.70;99.90;;;;;;1038815;28;20634;-75
2022/09/15 00:14:19;;;;;;;2.92;2.20;;;19.70;99.90;;;;;;1040426;28;20017;-75
2022/09/15 00:14:50;;;;;;;2.63;2.07;;;19.70;99.90;;;;;;1038562;28;20084;-75
2022/09/15 00:15:21;;;;;;;2.97;2.47;;;19.70;99.90;;;;;;1038375;28;20025;-74
2022/09/15 00:15:52;;;;;;;3.03;2.45;;;19.70;99.90;;;;;;1039993;28;20021;-74
2022/09/15 00:16:25;;;;;;;4.00;2.08;;;19.70;99.90;;;;;;1039413;28;20013;-74
2022/09/15 00:16:56;;;;;;;2.85;2.10;;;19.70;99.90;;;;;;1040416;28;20013;-74
2022/09/15 00:17:26;;;;;;;2.80;2.27;;;19.70;99.90;;;;;;1038931;28;20108;-74
2022/09/15 00:17:57;;;;;;;4.50;2.70;;;19.70;99.90;;;;;;1039130;28;20372;-75
2022/09/15 00:18:28;;;;;;;3.80;2.57;;;19.70;99.90;;;;;;1039045;28;20022;-74
2022/09/15 00:18:59;;;;;;;3.10;2.63;;;19.70;99.90;;;;;;1036573;28;20025;-74
2022/09/15 00:19:30;;;;;;;3.60;2.10;;;19.70;99.90;;;;;;1035796;28;20108;-75
2022/09/15 00:20:01;;;;;;;4.50;3.20;;;19.70;99.90;;;;;;1038651;28;20013;-75
2022/09/15 00:20:32;;;;;;;5.03;2.40;;;19.70;99.90;;;;;;1037736;28;20083;-75
2022/09/15 00:21:07;;;;;;;3.27;2.27;;;19.70;99.90;;;;;;1035672;28;20114;-74
2022/09/15 00:21:39;;;;;;;5.25;2.65;;;19.70;99.90;;;;;;1034828;28;20025;-75
2022/09/15 00:22:09;;;;;;;4.60;2.50;;;19.70;99.90;;;;;;1035938;28;20028;-74
2022/09/15 00:22:40;;;;;;;3.23;2.23;;;19.70;99.90;;;;;;1032127;28;20021;-74
2022/09/15 00:23:12;;;;;;;3.37;2.77;;;19.70;99.90;;;;;;1035435;28;20020;-75
2022/09/15 00:23:43;;;;;;;3.15;2.58;;;19.70;99.90;;;;;;1035569;28;20018;-73
2022/09/15 00:24:14;;;;;;;2.90;2.25;;;19.70;99.90;;;;;;1037166;28;20635;-75
2022/09/15 00:24:48;;;;;;;6.00;2.40;;;19.70;99.90;;;;;;1037807;28;20495;-75
2022/09/15 00:25:18;;;;;;;3.08;2.50;;;19.70;99.90;;;;;;1035769;28;20022;-76
2022/09/15 00:25:51;;;;;;;3.37;2.57;;;19.60;99.90;;;;;;1035018;28;20018;-74
2022/09/15 00:26:24;;;;;;;2.97;2.35;;;19.60;99.90;;;;;;1034371;28;20086;-75
2022/09/15 00:26:55;;;;;;;3.05;2.28;;;19.60;99.90;;;;;;1039204;28;20120;-73
2022/09/15 00:27:26;;;;;;;3.33;2.55;;;19.60;99.90;;;;;;1039922;28;20533;-72
2022/09/15 00:27:56;;;;;;;3.47;2.73;;;19.60;99.90;;;;;;1035531;28;20041;-74
2022/09/15 00:28:27;;;;;;;3.93;2.70;;;19.60;99.90;;;;;;1039445;28;20041;-75
2022/09/15 00:28:59;;;;;;;3.20;2.57;;;19.60;99.90;;;;;;1038093;28;20025;-75
2022/09/15 00:29:30;;;;;;;3.90;2.92;;;19.60;99.90;;;;;;1034913;28;20512;-74
2022/09/15 00:30:00;;;;;;;7.10;2.50;;;19.60;99.90;;;;;;1036096;28;20105;-75
2022/09/15 00:30:31;;;;;;;3.73;2.40;;;19.60;99.90;;;;;;1035819;28;20026;-74
2022/09/15 00:31:14;;;;;;;3.40;2.80;;;19.60;99.90;;;;;;1039173;28;20021;-73
2022/09/15 00:31:44;;;;;;;3.60;2.70;;;19.60;99.90;;;;;;1039679;28;20758;-73
2022/09/15 00:32:15;;;;;;;3.00;2.53;;;19.60;99.90;;;;;;1039352;28;20782;-75
2022/09/15 00:32:45;;;;;;;3.77;2.57;;;19.60;99.90;;;;;;1040750;28;20013;-73
2022/09/15 00:33:17;;;;;;;3.20;2.50;;;19.60;99.90;;;;;;1039595;28;20025;-75
2022/09/15 00:33:49;;;;;;;4.60;2.60;;;19.60;99.90;;;;;;1039711;28;20035;-74
2022/09/15 00:34:20;;;;;;;4.03;2.50;;;19.60;99.90;;;;;;1039825;28;20140;-73
2022/09/15 00:34:50;;;;;;;3.80;2.30;;;19.60;99.90;;;;;;1039557;28;20026;-76
2022/09/15 00:35:21;;;;;;;3.97;2.67;;;19.60;99.90;;;;;;1040724;28;20029;-73
2022/09/15 00:35:52;;;;;;;4.33;2.77;;;19.60;99.90;;;;;;1039484;28;20021;-76
2022/09/15 00:36:24;;;;;;;4.20;3.30;;;19.60;99.90;;;;;;1043072;28;20029;-72
2022/09/15 00:36:55;;;;;;;3.17;2.40;;;19.60;99.90;;;;;;1039389;28;20017;-74
2022/09/15 00:37:25;;;;;;;4.50;2.40;;;19.50;99.90;;;;;;1037104;28;20499;-74
2022/09/15 00:37:56;;;;;;;3.07;2.30;;;19.60;99.90;;;;;;1036229;28;20358;-75
2022/09/15 00:38:26;;;;;;;3.30;2.50;;;19.60;99.90;;;;;;1035093;28;20128;-76
2022/09/15 00:38:57;;;;;;;2.97;2.47;;;19.60;99.90;;;;;;1035291;28;20419;-75
2022/09/15 00:39:28;;;;;;;3.67;2.80;;;19.60;99.90;;;;;;1039643;28;20021;-75
2022/09/15 00:39:58;;;;;;;3.27;2.67;;;19.60;99.90;;;;;;1039069;28;20104;-76
2022/09/15 00:40:29;;;;;;;3.27;2.20;;;19.60;99.90;;;;;;1038084;28;20452;-74
2022/09/15 00:41:01;;;;;;;4.30;2.50;;;19.60;99.90;;;;;;1035028;28;20080;-75
2022/09/15 00:41:31;;;;;;;3.70;2.60;;;19.50;99.90;;;;;;1034963;28;20033;-75
2022/09/15 00:42:03;;;;;;;3.07;2.40;;;19.50;99.90;;;;;;1036061;28;20029;-74
2022/09/15 00:42:33;;;;;;;3.33;2.42;;;19.60;99.90;;;;;;1036246;28;20049;-74
2022/09/15 00:43:09;;;;;;;3.57;1.97;;;19.50;99.90;;;;;;1036286;28;20002;-75
2022/09/15 00:43:46;;;;;;;3.55;2.50;;;19.60;99.90;;;;;;1035176;28;20105;-74
2022/09/15 00:44:34;;;;;;;7.05;2.70;;;19.60;99.90;;;;;;1037300;28;20100;-73
2022/09/15 00:45:06;;;;;;;3.53;2.28;;;19.50;99.90;;;;;;1043433;28;20435;-74
2022/09/15 00:45:37;;;;;;;6.55;2.72;;;19.50;99.90;;;;;;1040120;28;20013;-74
2022/09/15 00:46:08;;;;;;;2.85;2.40;;;19.50;99.90;;;;;;1039216;28;20476;-76
2022/09/15 00:46:42;;;;;;;2.15;1.70;;;19.60;99.90;;;;;;1039288;28;20006;-75
2022/09/15 00:47:13;;;;;;;2.35;1.83;;;19.60;99.90;;;;;;1039909;28;20095;-75
2022/09/15 00:47:43;;;;;;;4.03;2.00;;;19.60;99.90;;;;;;1039693;28;20010;-75
2022/09/15 00:48:19;;;;;;;3.10;2.07;;;19.50;99.90;;;;;;1040149;28;20511;-76
2022/09/15 00:48:56;;;;;;;2.78;2.05;;;19.60;99.90;;;;;;1039257;28;20009;-75
2022/09/15 00:49:34;;;;;;;2.42;1.98;;;19.60;99.90;;;;;;1039061;28;20109;-74
2022/09/15 00:50:13;;;;;;;2.92;2.30;;;19.60;99.90;;;;;;1039705;28;20022;-73
2022/09/15 00:50:49;;;;;;;2.80;1.75;;;19.60;99.90;;;;;;1040010;28;20103;-75
2022/09/15 00:51:24;;;;;;;3.42;2.47;;;19.60;99.90;;;;;;1039404;28;20017;-75
2022/09/15 00:52:02;;;;;;;3.22;2.33;;;19.60;99.90;;;;;;1039093;28;20023;-75
2022/09/15 00:52:53;;;;;;;2.42;2.00;;;19.60;99.90;;;;;;1035047;28;20022;-75
2022/09/15 00:53:26;;;;;;;3.30;2.50;;;19.60;99.90;;;;;;1035830;28;20386;-75
2022/09/15 00:53:59;;;;;;;4.00;2.22;;;19.60;99.90;;;;;;1031183;28;20081;-75
2022/09/15 00:55:01;;;;;;;3.63;2.55;;;19.60;99.90;;;;;;1035358;28;20014;-76
2022/09/15 00:55:42;;;;;;;2.70;2.15;;;19.60;99.90;;;;;;1029990;28;20034;-76
2022/09/15 00:56:14;;;;;;;4.50;2.22;;;19.60;99.90;;;;;;1034057;28;20426;-76
2022/09/15 00:56:48;;;;;;;2.97;1.73;;;19.60;99.90;;;;;;1031179;28;20014;-75
2022/09/15 00:57:25;;;;;;;3.08;1.83;;;19.60;99.90;;;;;;1031558;28;20003;-73
2022/09/15 00:58:05;;;;;;;3.30;2.50;;;19.60;99.90;;;;;;1034855;28;20029;-76
2022/09/15 00:58:42;;;;;;;3.13;2.25;;;19.60;99.90;;;;;;1040294;28;20060;-73
2022/09/15 00:59:17;;;;;;;4.45;2.65;;;19.60;99.90;;;;;;1039797;28;20026;-73
2022/09/15 00:59:49;;;;;;;3.63;2.20;;;19.60;99.90;;;;;;1039281;28;20103;-75
2022/09/15 01:00:22;;;;;;;2.58;2.08;;;19.60;99.90;;;;;;1039650;28;20465;-75
2022/09/15 01:00:57;;;;;;;2.58;1.80;;;19.60;99.90;;;;;;1039453;28;20076;-74
2022/09/15 01:01:30;;;;;;;2.88;2.13;;;19.60;99.90;;;;;;1040252;28;20013;-75
2022/09/15 01:02:10;;;;;;;2.25;1.98;;;19.50;99.90;;;;;;1039635;28;20017;-75
2022/09/15 01:02:43;;;;;;;3.05;2.22;;;19.60;99.90;;;;;;1039860;28;20609;-75
2022/09/15 01:03:14;;;;;;;2.90;2.10;;;19.50;99.90;;;;;;1039082;28;20088;-74
2022/09/15 01:03:45;;;;;;;2.80;2.20;;;19.60;99.90;;;;;;1039544;28;20017;-74
2022/09/15 01:04:16;;;;;;;3.50;2.30;;;19.60;99.90;;;;;;1039492;28;20006;-76
2022/09/15 01:04:49;;;;;;;4.38;2.08;;;19.60;99.90;;;;;;1039053;28;20139;-75
2022/09/15 01:05:27;;;;;;;3.75;2.20;;;19.60;99.90;;;;;;1039954;28;20029;-76
2022/09/15 01:06:04;;;;;;;3.80;1.92;;;19.60;99.90;;;;;;1039088;28;20018;-76
2022/09/15 01:06:38;;;;;;;3.10;2.00;;;19.60;99.90;;;;;;1040235;28;20017;-75
2022/09/15 01:07:14;;;;;;;3.33;2.15;;;19.50;99.90;;;;;;1039265;28;20020;-75
2022/09/15 01:08:00;;;;;;;3.25;2.22;;;19.50;99.90;;;;;;1039288;28;20018;-76
2022/09/15 01:08:40;;;;;;;2.67;2.17;;;19.50;99.90;;;;;;1035324;28;20033;-75
2022/09/15 01:09:22;;;;;;;5.00;2.80;;;19.50;99.90;;;;;;1036814;28;20121;-75
2022/09/15 01:09:57;;;;;;;4.43;2.70;;;19.50;99.90;;;;;;1034890;28;20071;-75
2022/09/15 01:10:33;;;;;;;2.70;2.00;;;19.50;99.90;;;;;;1036255;28;20426;-75
2022/09/15 01:11:04;;;;;;;3.13;2.00;;;19.50;99.90;;;;;;1035012;28;20097;-76
2022/09/15 01:11:35;;;;;;;2.93;2.17;;;19.50;99.90;;;;;;1037482;28;20113;-77
2022/09/15 01:12:06;;;;;;;4.10;2.45;;;19.50;99.90;;;;;;1039860;28;20022;-73
2022/09/15 01:12:39;;;;;;;2.30;1.93;;;19.50;99.90;;;;;;1039026;28;20018;-75
2022/09/15 01:13:12;;;;;;;2.75;2.08;;;19.50;99.90;;;;;;1040055;28;20260;-74
2022/09/15 01:13:43;;;;;;;3.30;2.15;;;19.50;99.90;;;;;;1043287;28;20430;-72
2022/09/15 01:14:14;;;;;;;3.38;2.20;;;19.50;99.90;;;;;;1043148;28;20021;-76
2022/09/15 01:14:44;;;;;;;2.37;1.90;;;19.50;99.90;;;;;;1043491;28;20052;-75
2022/09/15 01:15:15;;;;;;;4.03;2.43;;;19.50;99.90;;;;;;1041773;28;20100;-74
2022/09/15 01:16:08;;;;;;;3.10;1.97;;;19.50;99.90;;;;;;1039427;28;20041;-75
2022/09/15 01:16:58;;;;;;;2.13;1.80;;;19.50;99.90;;;;;;1039910;28;20025;-75
2022/09/15 01:17:42;;;;;;;3.33;2.20;;;19.40;99.90;;;;;;1039281;28;20029;-74
2022/09/15 01:18:41;;;;;;;2.70;1.98;;;19.40;99.90;;;;;;1039052;28;20079;-76
2022/09/15 01:19:31;;;;;;;3.78;1.80;;;;;;;;;;1040041;28;20033;-73
2022/09/15 01:20:16;;;;;;;2.80;1.90;;;19.40;99.90;;;;;;1043583;28;20459;-74
2022/09/15 01:20:55;;;;;;;3.83;2.28;;;19.40;99.90;;;;;;1038882;28;20064;-74
2022/09/15 01:21:37;;;;;;;3.08;2.05;;;19.40;99.90;;;;;;1039105;28;20021;-74
2022/09/15 01:22:36;;;;;;;3.50;1.88;;;19.40;99.90;;;;;;1032562;28;20049;-73
2022/09/15 01:23:39;;;;;;;4.05;2.05;;;19.40;99.90;;;;;;1035249;28;20604;-76
2022/09/15 01:24:37;;;;;;;4.00;2.38;;;19.40;99.90;;;;;;1026929;28;20030;-75
2022/09/15 01:25:28;;;;;;;3.20;1.80;;;19.40;99.90;;;;;;1029916;28;20031;-75
2022/09/15 01:26:28;;;;;;;2.90;1.92;;;19.40;99.90;;;;;;1035170;28;20022;-77
2022/09/15 01:27:11;;;;;;;3.65;1.73;;;19.50;99.90;;;;;;1035621;28;20029;-75
2022/09/15 01:28:19;;;;;;;2.83;1.50;;;19.50;99.90;;;;;;1035795;28;20018;-75
2022/09/15 01:29:20;;;;;;;2.58;1.95;;;19.50;99.90;;;;;;1038844;28;20033;-75
2022/09/15 01:30:03;;;;;;;5.65;1.98;;;19.50;99.90;;;;;;1039358;28;20102;-75
2022/09/15 01:30:44;;;;;;;2.78;2.03;;;19.50;99.90;;;;;;1033338;28;20053;-74
2022/09/15 01:31:29;;;;;;;1.52;1.42;;;19.50;99.90;;;;;;1030762;28;20031;-74
2022/09/15 01:33:30;;;;;;;3.70;1.95;;;19.50;99.90;;;;;;1035474;28;20041;-75
2022/09/15 01:34:13;;;;;;;2.67;2.00;;;19.50;99.90;;;;;;1039202;28;20047;-75
2022/09/15 01:34:55;;;;;;;2.40;2.00;;;19.50;99.90;;;;;;1039207;28;20024;-73
2022/09/15 01:35:50;;;;;;;2.65;1.70;;;19.50;99.90;;;;;;1039448;28;20017;-74
2022/09/15 01:36:27;;;;;;;2.75;1.92;;;19.50;99.90;;;;;;1038779;28;20841;-74
2022/09/15 01:37:04;;;;;;;3.15;1.80;;;19.50;99.90;;;;;;1039493;28;20017;-77
2022/09/15 01:37:39;;;;;;;2.95;2.00;;;19.50;99.90;;;;;;1039729;28;20060;-73
2022/09/15 01:38:30;;;;;;;1.90;1.52;;;19.50;99.90;;;;;;1039223;28;20022;-75
2022/09/15 01:39:09;;;;;;;2.63;1.70;;;19.50;99.90;;;;;;1039148;28;20036;-76
2022/09/15 01:39:43;;;;;;;3.05;2.08;;;19.50;99.90;;;;;;1039160;28;20135;-75
2022/09/15 01:40:17;;;;;;;3.72;2.28;;;19.50;99.90;;;;;;1039566;28;20014;-75
2022/09/15 01:40:59;;;;;;;1.58;1.25;;;19.50;99.90;;;;;;1035918;28;20026;-76
2022/09/15 01:41:41;;;;;;;2.00;1.50;;;19.50;99.90;;;;;;1034915;28;20025;-75
2022/09/15 01:42:16;;;;;;;2.15;1.77;;;19.50;99.90;;;;;;1036623;28;20067;-76
2022/09/15 01:42:49;;;;;;;2.67;1.58;;;19.50;99.90;;;;;;1039263;28;20020;-76
2022/09/15 01:43:22;;;;;;;2.60;2.10;;;19.50;99.90;;;;;;1038969;28;20053;-76
2022/09/15 01:44:04;;;;;;;3.20;1.90;;;19.50;99.90;;;;;;1038044;28;20025;-75
2022/09/15 01:44:59;;;;;;;2.95;1.85;;;19.50;99.90;;;;;;1037123;28;20029;-75
2022/09/15 01:45:32;;;;;;;2.08;1.30;;;19.50;99.90;;;;;;1035673;28;20086;-76
2022/09/15 01:46:04;;;;;;;2.78;1.80;;;19.50;99.90;;;;;;1039110;28;20073;-73
2022/09/15 01:46:45;;;;;;;3.15;1.67;;;19.50;99.90;;;;;;1038838;28;20934;-74
2022/09/15 01:47:18;;;;;;;2.45;1.83;;;19.50;99.90;;;;;;1039320;28;20011;-75
2022/09/15 01:47:53;;;;;;;3.20;1.40;;;19.50;99.90;;;;;;1038958;28;20021;-74
2022/09/15 01:48:26;;;;;;;3.30;2.05;;;19.50;99.90;;;;;;1041616;28;20014;-76
2022/09/15 01:48:59;;;;;;;3.67;1.52;;;19.50;99.90;;;;;;1042796;28;20087;-76
2022/09/15 01:49:53;;;;;;;3.20;1.60;;;19.50;99.90;;;;;;1041622;28;20527;-74
2022/09/15 01:50:36;;;;;;;2.63;1.70;;;19.50;99.90;;;;;;1043127;28;20017;-73
2022/09/15 01:51:08;;;;;;;1.95;1.50;;;19.50;99.90;;;;;;1038943;28;20056;-75
2022/09/15 01:51:41;;;;;;;2.22;1.63;;;19.50;99.90;;;;;;1038988;28;20354;-75
2022/09/15 01:52:16;;;;;;;3.75;1.65;;;19.50;99.90;;;;;;1036564;28;20041;-75
2022/09/15 01:52:51;;;;;;;1.90;1.50;;;19.50;99.90;;;;;;1033788;28;20509;-75
2022/09/15 01:53:23;;;;;;;2.20;1.50;;;19.50;99.90;;;;;;1039394;28;20100;-75
2022/09/15 01:53:55;;;;;;;3.65;1.65;;;19.50;99.90;;;;;;1039362;28;20001;-75
2022/09/15 01:54:31;;;;;;;3.10;1.83;;;19.50;99.90;;;;;;1038790;28;20005;-73
2022/09/15 01:55:10;;;;;;;4.35;1.70;;;19.50;99.90;;;;;;1038305;28;20005;-75
2022/09/15 01:55:55;;;;;;;2.38;1.80;;;19.40;99.90;;;;;;1035158;28;20037;-75
2022/09/15 01:56:25;;;;;;;2.53;1.83;;;19.40;99.90;;;;;;1035019;28;20029;-76
2022/09/15 01:56:56;;;;;;;1.83;1.73;;;19.50;99.90;;;;;;1030748;28;20006;-75
2022/09/15 01:57:27;;;;;;;4.37;1.60;;;19.40;99.90;;;;;;1032412;28;20595;-74
2022/09/15 01:57:58;;;;;;;2.33;1.90;;;19.40;99.90;;;;;;1031414;28;20054;-74
2022/09/15 01:58:28;;;;;;;2.75;1.60;;;19.40;99.90;;;;;;1031696;28;20082;-75
2022/09/15 01:58:59;;;;;;;4.03;1.93;;;19.40;99.90;;;;;;1035580;28;20014;-76
2022/09/15 01:59:30;;;;;;;1.83;1.63;;;19.40;99.90;;;;;;1030612;28;20488;-74
2022/09/15 02:00:00;;;;;;;3.53;1.50;;;19.40;99.90;;;;;;1035046;28;20097;-75
2022/09/15 02:00:35;;;;;;;2.50;1.30;;;19.40;99.90;;;;;;1035055;28;20018;-74
2022/09/15 02:01:17;;;;;;;3.25;2.15;;;19.40;99.90;;;;;;1031960;28;20007;-75
2022/09/15 02:01:57;;;;;;;1.67;1.33;;;19.40;99.90;;;;;;1035345;28;20018;-75
2022/09/15 02:02:34;;;;;;;2.30;1.65;;;19.40;99.90;;;;;;1034708;28;20101;-75
2022/09/15 02:03:17;;;;;;;1.98;1.40;;;19.40;99.90;;;;;;1034947;28;20040;-74
2022/09/15 02:04:17;;;;;;;4.00;2.00;;;19.50;99.90;;;;;;1035188;28;20010;-74
2022/09/15 02:04:59;;;;;;;2.92;1.60;;;19.50;99.90;;;;;;1028178;28;20113;-76
2022/09/15 02:05:44;;;;;;;2.15;1.58;;;19.50;99.90;;;;;;1028942;28;20532;-75
2022/09/15 02:06:36;;;;;;;1.85;1.42;;;19.50;99.90;;;;;;1037493;28;20021;-75
2022/09/15 02:07:18;;;;;;;2.35;1.52;;;19.50;99.90;;;;;;1039813;28;20022;-76
2022/09/15 02:08:03;;;;;;;2.20;1.20;;;19.50;99.90;;;;;;1038884;28;20026;-74
2022/09/15 02:09:01;;;;;;;2.13;1.42;;;19.50;99.90;;;;;;1039313;28;20381;-74
2022/09/15 02:09:42;;;;;;;2.13;1.20;;;19.50;99.90;;;;;;1043393;28;20083;-74
2022/09/15 02:10:20;;;;;;;2.33;1.13;;;19.50;99.90;;;;;;1043251;28;20040;-76
2022/09/15 02:11:08;;;;;;;4.00;1.80;;;19.60;99.90;;;;;;1039558;28;20583;-75
2022/09/15 02:12:00;;;;;;;;;;;19.60;99.90;;;;;;1033785;28;20023;-75
2022/09/15 02:12:57;;;;;;;2.60;1.42;;;19.60;99.90;;;;;;1034925;28;19931;-73
2022/09/15 02:13:47;;;;;;;;;;;19.60;99.90;;;;;;1035350;28;20044;-75
2022/09/15 02:14:46;;;;;;;1.95;1.75;;;19.60;99.90;;;;;;1035530;28;19947;-76
2022/09/15 02:15:28;;;;;;;2.08;1.25;;;19.60;99.90;;;;;;1034664;28;20069;-75
2022/09/15 02:15:59;;;;;;;2.45;1.40;;;19.60;99.90;;;;;;1035665;28;20413;-74
2022/09/15 02:16:33;;;;;;;4.47;1.48;;;19.60;99.90;;;;;;1038599;28;20416;-77
2022/09/15 02:17:04;;;;;;;2.22;1.25;;;19.70;99.90;;;;;;1041391;28;20079;-75
2022/09/15 02:17:40;;;;;;;1.53;1.10;;;19.70;99.90;;;;;;1039255;28;20080;-75
2022/09/15 02:18:14;;;;;;;1.15;1.05;;;19.60;99.90;;;;;;1038606;28;20041;-75
2022/09/15 02:18:51;;;;;;;1.63;1.15;;;19.60;99.90;;;;;;1039462;28;20065;-74
2022/09/15 02:19:46;;;;;;;1.52;1.13;;;19.60;99.90;;;;;;1039842;28;20099;-75
2022/09/15 02:20:19;;;;;;;3.03;1.60;;;19.70;99.90;;;;;;1039412;28;20079;-75
2022/09/15 02:20:57;;;;;;;1.88;1.17;;;19.70;99.90;;;;;;1039079;28;20052;-72
2022/09/15 02:21:53;;;;;;;2.13;1.30;;;19.60;99.90;;;;;;1034084;28;20115;-75
2022/09/15 02:22:28;;;;;;;1.20;1.00;;;19.70;99.90;;;;;;1035114;28;20029;-76
2022/09/15 02:23:08;;;;;;;2.38;1.17;;;19.70;99.90;;;;;;1039696;28;20080;-76
2022/09/15 02:23:43;;;;;;;2.30;1.50;;;19.70;99.90;;;;;;1039398;28;20034;-72
2022/09/15 02:24:18;;;;;;;2.65;1.23;;;19.70;99.90;;;;;;1039383;28;20025;-74
2022/09/15 02:25:03;;;;;;;1.73;1.50;;;19.70;99.90;;;;;;1038607;28;20026;-76
2022/09/15 02:25:41;;;;;;;5.03;1.20;;;19.70;99.90;;;;;;1039334;28;20065;-75
2022/09/15 02:26:16;;;;;;;2.80;1.60;;;19.70;99.90;;;;;;1036357;28;20036;-73
2022/09/15 02:26:48;;;;;;;2.72;1.60;;;19.70;99.90;;;;;;1038936;28;20025;-73
2022/09/15 02:27:23;;;;;;;3.22;1.70;;;19.60;99.90;;;;;;1039586;28;20033;-75
2022/09/15 02:27:59;;;;;;;2.80;1.52;;;19.70;99.90;;;;;;1039476;28;20017;-74
2022/09/15 02:28:34;;;;;;;3.85;1.42;;;19.60;99.90;;;;;;1035194;28;20018;-75
2022/09/15 02:29:08;;;;;;;3.25;1.75;;;19.60;99.90;;;;;;1035689;28;20026;-73
2022/09/15 02:29:40;;;;;;;4.18;1.70;;;19.60;99.90;;;;;;1035432;28;20020;-75
2022/09/15 02:30:14;;;;;;;3.45;1.45;;;19.60;99.90;;;;;;1035134;28;20037;-73
2022/09/15 02:30:46;;;;;;;3.17;1.60;;;19.60;99.90;;;;;;1039243;28;20500;-76
2022/09/15 02:31:19;;;;;;;2.08;1.45;;;19.60;99.90;;;;;;1039159;28;20663;-74
2022/09/15 02:31:54;;;;;;;4.15;1.35;;;19.60;99.90;;;;;;1039644;28;20030;-74
2022/09/15 02:32:27;;;;;;;1.50;1.40;;;19.60;99.90;;;;;;1039763;28;20017;-74
2022/09/15 02:33:05;;;;;;;2.72;1.55;;;19.60;99.90;;;;;;1039789;28;20114;-74
2022/09/15 02:33:43;;;;;;;3.33;1.50;;;19.60;99.90;;;;;;1039348;28;20021;-75
2022/09/15 02:34:23;;;;;;;2.42;1.52;;;19.60;99.90;;;;;;1039669;28;20508;-76
2022/09/15 02:34:56;;;;;;;2.83;1.30;;;;;;;;;;1039823;28;20392;-76
2022/09/15 02:35:28;;;;;;;2.72;1.70;;;19.60;99.90;;;;;;1036765;28;20030;-76
2022/09/15 02:36:00;;;;;;;2.42;1.40;;;19.60;99.90;;;;;;1042925;28;20033;-75
2022/09/15 02:36:30;;;;;;;2.13;1.40;;;19.50;99.90;;;;;;1034833;28;20038;-76
2022/09/15 02:37:03;;;;;;;1.83;1.30;;;19.50;99.90;;;;;;1032308;28;20022;-73
2022/09/15 02:37:35;;;;;;;2.97;1.60;;;19.60;99.90;;;;;;1035538;28;20022;-75
2022/09/15 02:38:08;;;;;;;1.45;1.33;;;19.60;99.90;;;;;;1035289;28;20125;-76
2022/09/15 02:38:45;;;;;;;4.22;1.83;;;19.50;99.90;;;;;;1031436;28;20637;-76
2022/09/15 02:39:19;;;;;;;4.43;1.98;;;19.60;99.90;;;;;;1030872;28;20137;-75
2022/09/15 02:39:56;;;;;;;2.70;1.30;;;19.50;99.90;;;;;;1031117;28;20032;-75
2022/09/15 02:40:28;;;;;;;1.77;1.45;;;19.60;99.90;;;;;;1033725;28;20540;-75
2022/09/15 02:41:00;;;;;;;2.05;1.23;;;19.50;99.90;;;;;;1039596;28;20072;-76
2022/09/15 02:41:32;;;;;;;3.72;1.23;;;19.50;99.90;;;;;;1037577;28;20522;-75
2022/09/15 02:42:03;;;;;;;2.15;1.30;;;19.50;99.90;;;;;;1036024;28;20029;-76
2022/09/15 02:42:34;;;;;;;3.20;1.43;;;19.50;99.90;;;;;;1035594;28;20026;-74
2022/09/15 02:43:12;;;;;;;2.30;1.48;;;19.50;99.90;;;;;;1034802;28;20063;-76
2022/09/15 02:43:48;;;;;;;2.78;1.58;;;19.50;99.90;;;;;;1035223;28;20026;-74
2022/09/15 02:44:18;;;;;;;1.67;1.50;;;19.60;99.90;;;;;;1030721;28;20089;-75
2022/09/15 02:44:49;;;;;;;1.53;1.10;;;19.60;99.90;;;;;;1031170;28;20026;-75
2022/09/15 02:45:19;;;;;;;2.33;1.20;;;19.60;99.90;;;;;;1031220;28;20031;-76
2022/09/15 02:45:50;;;;;;;3.70;1.57;;;19.60;99.90;;;;;;1036467;28;20464;-75
2022/09/15 02:46:21;;;;;;;1.90;1.17;;;19.60;99.90;;;;;;1039334;28;20026;-77
2022/09/15 02:46:52;;;;;;;2.80;1.88;;;19.50;99.90;;;;;;1039016;28;20413;-77
2022/09/15 02:47:23;;;;;;;3.77;1.83;;;19.60;99.90;;;;;;1039666;28;20392;-74
2022/09/15 02:47:53;;;;;;;2.30;1.50;;;19.60;99.90;;;;;;1039267;28;20472;-76
2022/09/15 02:48:24;;;;;;;2.13;1.53;;;19.60;99.90;;;;;;1038696;28;20113;-76
2022/09/15 02:48:55;;;;;;;1.87;1.30;;;19.60;99.90;;;;;;1038985;28;20516;-73
2022/09/15 02:49:27;;;;;;;3.03;1.30;;;19.60;99.90;;;;;;1034670;28;20025;-76
2022/09/15 02:49:57;;;;;;;2.13;1.50;;;19.60;99.90;;;;;;1035533;28;20408;-75
2022/09/15 02:50:28;;;;;;;2.97;1.33;;;19.60;99.90;;;;;;1039424;28;20423;-75
2022/09/15 02:50:58;;;;;;;2.93;1.70;;;19.50;99.90;;;;;;1036557;28;20099;-75
2022/09/15 02:51:30;;;;;;;3.17;1.90;;;19.60;99.90;;;;;;1035739;28;20030;-76
2022/09/15 02:52:00;;;;;;;2.83;1.30;;;19.60;99.90;;;;;;1035500;28;20010;-76
2022/09/15 02:52:31;;;;;;;3.63;1.50;;;19.60;99.90;;;;;;1032344;28;20026;-76
2022/09/15 02:53:02;;;;;;;2.30;1.20;;;19.60;99.90;;;;;;1035962;28;20093;-75
2022/09/15 02:53:33;;;;;;;1.42;1.10;;;19.60;99.90;;;;;;1035445;28;20034;-76
2022/09/15 02:54:04;;;;;;;1.52;1.10;;;19.60;99.90;;;;;;1037019;28;20022;-76
2022/09/15 02:54:34;;;;;;;2.73;1.43;;;19.60;99.90;;;;;;1043653;28;20025;-77
2022/09/15 02:55:05;;;;;;;2.03;1.30;;;19.60;99.90;;;;;;1043856;28;20098;-76
2022/09/15 02:55:36;;;;;;;3.13;1.37;;;19.60;99.90;;;;;;1040727;28;20053;-76
2022/09/15 02:56:06;;;;;;;2.00;1.07;;;19.60;99.90;;;;;;1039896;28;20025;-77
2022/09/15 02:56:37;;;;;;;1.43;1.20;;;19.60;99.90;;;;;;1036037;28;20084;-77
2022/09/15 02:57:08;;;;;;;2.47;1.20;;;19.60;99.90;;;;;;1039427;28;20053;-77
2022/09/15 02:57:38;;;;;;;1.53;1.10;;;19.60;99.90;;;;;;1042170;28;20033;-74
2022/09/15 02:58:09;;;;;;;2.20;1.73;;;19.60;99.90;;;;;;1044211;28;20017;-75
2022/09/15 02:58:39;;;;;;;2.20;1.40;;;19.60;99.90;;;;;;1043711;28;20044;-76
2022/09/15 02:59:10;;;;;;;2.93;1.53;;;19.50;99.90;;;;;;1039612;28;20022;-76
2022/09/15 03:00:30;;;;;;;2.85;1.35;;;19.60;99.90;;;;;;1036348;28;20038;-76
2022/09/15 03:01:02;;;;;;;2.20;1.27;;;19.50;99.90;;;;;;1038330;28;20098;-75
2022/09/15 03:01:33;;;;;;;2.75;1.20;;;19.60;99.90;;;;;;1037538;28;20053;-73
2022/09/15 03:02:04;;;;;;;1.60;1.13;;;19.50;99.90;;;;;;1035596;28;20040;-76
2022/09/15 03:02:35;;;;;;;2.63;1.07;;;19.50;99.90;;;;;;1036146;28;20844;-73
2022/09/15 03:03:05;;;;;;;2.83;1.53;;;19.60;99.90;;;;;;1040418;28;20032;-76
2022/09/15 03:03:36;;;;;;;2.47;1.17;;;19.50;99.90;;;;;;1040224;28;20025;-74
2022/09/15 03:04:06;;;;;;;5.90;1.30;;;19.60;99.90;;;;;;1039788;28;20030;-74
2022/09/15 03:04:37;;;;;;;2.83;1.43;;;19.60;99.90;;;;;;1039659;28;20073;-75
2022/09/15 03:05:08;;;;;;;2.33;1.17;;;19.60;99.90;;;;;;1039566;28;20021;-74
2022/09/15 03:05:39;;;;;;;2.67;1.25;;;19.60;99.90;;;;;;1040151;28;20017;-74
2022/09/15 03:06:17;;;;;;;1.53;1.27;;;19.60;99.90;;;;;;1040024;28;20021;-76
2022/09/15 03:06:47;;;;;;;3.03;1.40;;;19.60;99.90;;;;;;1040129;28;20616;-74
2022/09/15 03:07:18;;;;;;;2.40;1.33;;;19.50;99.90;;;;;;1040202;28;20504;-76
2022/09/15 03:07:50;;;;;;;1.90;1.17;;;19.60;99.90;;;;;;1038521;28;20485;-75